EFOU

Oulu Airport

Oulu / Oulunsalo, Finland
METAR EFOU 201220Z AUTO 18004KT 9999 FEW005/// SCT007/// BKN093/// 06/04 Q1017
Observed Flight Rules
Oct-20 @ 12:20 UTC (32 minutes ago) Visual Flight Rules
Wind Visibility Clouds
180° at 4 knots 10,000+ meters
  • Few at 500' AGL
  • Scattered at 700' AGL
  • Broken at 9,300' AGL
Temperatures Readings
Current 6°C / 43°F
Dewpoint 4°C / 39°F
Humidity 87%
Altimeter 30.03" Hg
Pressure 1017 hPa
Elevation 15
METAR EFOU 201220Z AUTO 18004KT 9999 FEW005/// SCT007/// BKN093/// 06/04 Q1017
Observed Flight Rules
Oct-20 @ 12:20 UTC
(32 minutes ago)
VFR
Wind Visibility
180° at 4 knots 10,000+ meters
Clouds
  • Few at 500' AGL
  • Scattered at 700' AGL
  • Broken at 9,300' AGL
Temperature Dewpoint
6°C / 43°F 4°C / 39°F
Humidity Altimeter Pressure
87% 30.03" Hg 1017 hPa